In Rescue
 
Open Full Screen Window  High Contrast Mode
Wind Gusting 00 knots
09
May 25, 2022 9:49 PM CDT
Present Weather: Light Drizzle
Weather Information
Wind Direction
  040 °
Wind Speed
  09 kt (10 mph)
Wind Gust
  00 kt (0 mph)
Altimeter
29.80 in
Visibility
10 SM
Temperature
11° C
52° F
Dewpoint
09° C
48° F
Humidity
88%
1hr Rain Fall
00.00 in.
24hr Rain Fall
00.14 in.
Sky Condition
Overcast @ 11,000 ft
Broken @ 5,000 ft
Scattered @ 900 ft
VFR

METAR KRGK 260249Z AUTO 04009KT 10SM -DZ SCT009 BKN050 OVC110 11/09 A2980 RMK AO2

FAA Disclaimer: The data displayed is for advisory purposes only and is not to be used for flight planning or operations.